Time,TemperatureF,DewpointF,PressureIn,WindDirection,WindDirectionDegrees,WindSpeedMPH,WindSpeedGustMPH,Humidity,HourlyPrecipIn,Conditions,Clouds,dailyrainin,SoftwareType,DateUTC
2013-05-01 00:02:00,61.0,50.0,-100.00,North,10,13.0,18.0,68,0.00,,,-99.99,,2013-05-01 05:02:00,
2013-05-01 00:11:00,61.0,50.0,-100.00,North,10,13.0,18.0,68,0.00,,,-99.99,,2013-05-01 05:11:00,
2013-05-01 00:21:00,59.0,48.0,-100.00,North,5,10.0,16.0,67,0.00,,,-99.99,,2013-05-01 05:21:00,
2013-05-01 00:32:00,59.0,47.0,-100.00,North,5,9.0,15.0,66,0.00,,,-99.99,,2013-05-01 05:32:00,
2013-05-01 00:41:00,58.0,47.0,-100.00,North,5,11.0,15.0,67,0.00,,,-99.99,,2013-05-01 05:41:00,
2013-05-01 00:52:00,57.0,47.0,-100.00,North,5,12.0,16.0,69,0.00,,,-99.99,,2013-05-01 05:52:00,
2013-05-01 01:02:00,57.0,48.0,-100.00,NNW,345,9.0,14.0,71,0.00,,,-99.99,,2013-05-01 06:02:00,
2013-05-01 01:12:00,56.0,48.0,-100.00,NNW,345,9.0,13.0,73,0.00,,,-99.99,,2013-05-01 06:12:00,
2013-05-01 01:22:00,56.0,48.0,-100.00,NNW,345,9.0,13.0,73,0.00,,,-99.99,,2013-05-01 06:22:00,
2013-05-01 01:32:00,56.0,48.0,-100.00,NNW,345,7.0,12.0,73,0.00,,,-99.99,,2013-05-01 06:32:00,
2013-05-01 01:42:00,56.0,48.0,-100.00,NNW,345,7.0,12.0,73,0.00,,,-99.99,,2013-05-01 06:42:00,
2013-05-01 01:51:00,55.0,49.0,-100.00,North,350,8.0,11.0,79,0.00,,,-99.99,,2013-05-01 06:51:00,
2013-05-01 02:01:00,55.0,49.0,-100.00,NNW,335,9.0,11.0,80,0.00,,,-99.99,,2013-05-01 07:01:00,
2013-05-01 02:11:00,54.0,49.0,-100.00,NNW,345,9.0,11.0,82,0.00,,,-99.99,,2013-05-01 07:11:00,
2013-05-01 02:21:00,54.0,49.0,-100.00,North,350,11.0,14.0,81,0.00,,,-99.99,,2013-05-01 07:21:00,
2013-05-01 02:32:00,54.0,49.0,-100.00,North,350,11.0,14.0,81,0.00,,,-99.99,,2013-05-01 07:32:00,
2013-05-01 02:41:00,54.0,49.0,-100.00,North,350,11.0,14.0,81,0.00,,,-99.99,,2013-05-01 07:41:00,
2013-05-01 02:52:00,54.0,49.0,-100.00,North,350,11.0,14.0,81,0.00,,,-99.99,,2013-05-01 07:52:00,
2013-05-01 03:01:00,53.0,50.0,-100.00,North,350,9.0,-999.0,87,0.00,,,-99.99,,2013-05-01 08:01:00,
2013-05-01 03:11:00,53.0,50.0,-100.00,NNW,345,9.0,12.0,89,0.00,,,-99.99,,2013-05-01 08:11:00,
2013-05-01 03:22:00,53.0,50.0,-100.00,NNW,345,9.0,12.0,89,0.00,,,-99.99,,2013-05-01 08:22:00,
2013-05-01 03:32:00,53.0,50.0,-100.00,NNW,340,8.0,12.0,90,0.00,,,-99.99,,2013-05-01 08:32:00,
2013-05-01 03:42:00,52.0,50.0,-100.00,North,355,9.0,11.0,92,0.00,,,-99.99,,2013-05-01 08:42:00,
2013-05-01 03:52:00,52.0,50.0,-100.00,NNW,330,9.0,10.0,94,0.00,,,-99.99,,2013-05-01 08:52:00,
2013-05-01 04:01:00,52.0,50.0,-100.00,NNW,330,9.0,10.0,94,0.00,,,-99.99,,2013-05-01 09:01:00,
2013-05-01 04:11:00,52.0,51.0,-100.00,NNW,340,9.0,11.0,94,0.00,,,-99.99,,2013-05-01 09:11:00,
2013-05-01 04:21:00,52.0,51.0,-100.00,NNW,335,9.0,13.0,94,0.00,,,-99.99,,2013-05-01 09:21:00,
2013-05-01 04:33:00,53.0,51.0,-100.00,North,350,11.0,15.0,93,0.00,,,-99.99,,2013-05-01 09:33:00,
2013-05-01 04:42:00,53.0,51.0,-100.00,NNW,340,12.0,14.0,94,0.00,,,-99.99,,2013-05-01 09:42:00,
2013-05-01 04:52:00,53.0,51.0,-100.00,NNW,340,12.0,17.0,95,0.00,,,-99.99,,2013-05-01 09:52:00,
2013-05-01 05:02:00,53.0,51.0,-100.00,NNW,340,12.0,17.0,95,0.00,,,-99.99,,2013-05-01 10:02:00,
2013-05-01 05:12:00,53.0,52.0,-100.00,NNW,345,11.0,16.0,97,0.00,,,-99.99,,2013-05-01 10:12:00,
2013-05-01 05:22:00,52.0,52.0,-100.00,NNW,335,11.0,14.0,99,0.00,,,-99.99,,2013-05-01 10:22:00,
2013-05-01 05:33:00,52.0,52.0,-100.00,NNW,335,11.0,14.0,99,0.00,,,-99.99,,2013-05-01 10:33:00,
2013-05-01 05:42:00,52.0,52.0,-100.00,NNW,345,11.0,15.0,99,0.00,,,-99.99,,2013-05-01 10:42:00,
2013-05-01 05:52:00,52.0,52.0,-100.00,NNW,340,12.0,16.0,99,0.00,,,-99.99,,2013-05-01 10:52:00,
2013-05-01 06:03:00,52.0,-99.9,-100.00,North,5,11.0,14.0,-999,0.00,,,-99.99,,2013-05-01 11:03:00,
2013-05-01 06:11:00,53.0,53.0,-100.00,North,350,14.0,19.0,99,0.00,,,-99.99,,2013-05-01 11:11:00,
2013-05-01 06:22:00,53.0,52.0,-100.00,North,5,16.0,21.0,96,0.00,,,-99.99,,2013-05-01 11:22:00,
2013-05-01 06:32:00,53.0,52.0,-100.00,North,355,14.0,21.0,96,0.00,,,-99.99,,2013-05-01 11:32:00,
2013-05-01 06:42:00,53.0,53.0,-100.00,North,350,11.0,17.0,99,0.00,,,-99.99,,2013-05-01 11:42:00,
2013-05-01 06:52:00,53.0,-99.9,-100.00,North,5,10.0,17.0,-999,0.00,,,-99.99,,2013-05-01 11:52:00,
2013-05-01 07:01:00,53.0,53.0,-100.00,North,350,14.0,17.0,99,0.00,,,-99.99,,2013-05-01 12:01:00,
2013-05-01 07:11:00,53.0,53.0,-100.00,North,350,14.0,19.0,99,0.00,,,-99.99,,2013-05-01 12:11:00,
2013-05-01 07:21:00,54.0,53.0,-100.00,North,355,17.0,24.0,98,0.00,,,-99.99,,2013-05-01 12:21:00,
2013-05-01 07:31:00,54.0,53.0,-100.00,NNW,345,17.0,26.0,98,0.00,,,-99.99,,2013-05-01 12:31:00,
2013-05-01 07:41:00,54.0,54.0,-100.00,North,355,17.0,24.0,97,0.00,,,-99.99,,2013-05-01 12:41:00,
2013-05-01 07:51:00,54.0,53.0,-100.00,NNW,345,21.0,29.0,96,0.00,,,-99.99,,2013-05-01 12:51:00,
2013-05-01 08:01:00,54.0,51.0,-100.00,North,10,23.0,32.0,89,0.00,,,-99.99,,2013-05-01 13:01:00,
2013-05-01 08:11:00,55.0,50.0,-100.00,North,5,21.0,30.0,84,0.00,,,-99.99,,2013-05-01 13:11:00,
2013-05-01 08:21:00,55.0,50.0,-100.00,North,5,21.0,28.0,82,0.00,,,-99.99,,2013-05-01 13:21:00,
2013-05-01 08:32:00,55.0,50.0,-100.00,North,10,19.0,28.0,81,0.00,,,-99.99,,2013-05-01 13:32:00,
2013-05-01 08:42:00,56.0,49.0,-100.00,NNE,15,21.0,29.0,78,0.00,,,-99.99,,2013-05-01 13:42:00,
2013-05-01 08:52:00,56.0,48.0,-100.00,North,10,21.0,28.0,75,0.00,,,-99.99,,2013-05-01 13:52:00,
2013-05-01 09:02:00,57.0,48.0,-100.00,NNE,20,16.0,26.0,71,0.00,,,-99.99,,2013-05-01 14:02:00,
2013-05-01 09:11:00,57.0,48.0,-100.00,North,5,17.0,28.0,70,0.00,,,-99.99,,2013-05-01 14:11:00,
2013-05-01 09:21:00,57.0,47.0,-100.00,NNE,15,17.0,26.0,69,0.00,,,-99.99,,2013-05-01 14:21:00,
2013-05-01 09:32:00,57.0,47.0,-100.00,NNE,15,17.0,23.0,67,0.00,,,-99.99,,2013-05-01 14:32:00,
2013-05-01 09:42:00,58.0,47.0,-100.00,North,5,16.0,24.0,65,0.00,,,-99.99,,2013-05-01 14:42:00,
2013-05-01 09:51:00,59.0,47.0,-100.00,NNE,15,18.0,24.0,65,0.00,,,-99.99,,2013-05-01 14:51:00,
2013-05-01 10:01:00,59.0,47.0,-100.00,North,5,21.0,26.0,63,0.00,,,-99.99,,2013-05-01 15:01:00,
2013-05-01 10:11:00,60.0,47.0,-100.00,North,10,16.0,27.0,62,0.00,,,-99.99,,2013-05-01 15:11:00,
2013-05-01 10:21:00,59.0,47.0,-100.00,NNE,25,16.0,24.0,62,0.00,,,-99.99,,2013-05-01 15:21:00,
2013-05-01 10:33:00,60.0,46.0,-100.00,North,10,17.0,26.0,60,0.00,,,-99.99,,2013-05-01 15:33:00,
2013-05-01 10:43:00,61.0,47.0,-100.00,North,10,16.0,24.0,60,0.00,,,-99.99,,2013-05-01 15:43:00,
2013-05-01 10:53:00,61.0,47.0,-100.00,North,10,17.0,24.0,60,0.00,,,-99.99,,2013-05-01 15:53:00,
2013-05-01 11:03:00,62.0,48.0,-100.00,NE,40,14.0,21.0,60,0.00,,,-99.99,,2013-05-01 16:03:00,
2013-05-01 11:12:00,61.0,47.0,-100.00,NNE,15,17.0,22.0,59,0.00,,,-99.99,,2013-05-01 16:12:00,
2013-05-01 11:22:00,61.0,47.0,-100.00,NNE,15,17.0,22.0,59,0.00,,,-99.99,,2013-05-01 16:22:00,
2013-05-01 11:32:00,62.0,48.0,-100.00,North,10,17.0,24.0,60,0.00,,,-99.99,,2013-05-01 16:32:00,
2013-05-01 11:42:00,62.0,48.0,-100.00,North,0,16.0,21.0,59,0.00,,,-99.99,,2013-05-01 16:42:00,
2013-05-01 11:53:00,62.0,49.0,-100.00,North,0,16.0,22.0,62,0.00,,,-99.99,,2013-05-01 16:53:00,
2013-05-01 12:02:00,63.0,50.0,-100.00,NNE,15,15.0,24.0,61,0.00,,,-99.99,,2013-05-01 17:02:00,
2013-05-01 12:12:00,63.0,50.0,-100.00,North,5,17.0,24.0,61,0.00,,,-99.99,,2013-05-01 17:12:00,
2013-05-01 12:21:00,63.0,50.0,-100.00,North,10,17.0,22.0,62,0.00,,,-99.99,,2013-05-01 17:21:00,
2013-05-01 12:32:00,63.0,49.0,-100.00,North,355,16.0,22.0,60,0.00,,,-99.99,,2013-05-01 17:32:00,
2013-05-01 12:42:00,64.0,50.0,-100.00,NE,35,15.0,23.0,59,0.00,,,-99.99,,2013-05-01 17:42:00,
2013-05-01 12:52:00,63.0,50.0,-100.00,North,10,19.0,24.0,61,0.00,,,-99.99,,2013-05-01 17:52:00,
2013-05-01 13:01:00,64.0,50.0,-100.00,NNE,30,12.0,24.0,60,0.00,,,-99.99,,2013-05-01 18:01:00,
2013-05-01 13:11:00,64.0,49.0,-100.00,North,5,14.0,21.0,58,0.00,,,-99.99,,2013-05-01 18:11:00,
2013-05-01 13:22:00,65.0,51.0,-100.00,NNE,15,12.0,21.0,60,0.00,,,-99.99,,2013-05-01 18:22:00,
2013-05-01 13:32:00,65.0,50.0,-100.00,North,5,14.0,22.0,58,0.00,,,-99.99,,2013-05-01 18:32:00,
2013-05-01 13:41:00,66.0,50.0,-100.00,NNW,345,11.0,22.0,56,0.00,,,-99.99,,2013-05-01 18:41:00,
2013-05-01 13:52:00,66.0,51.0,-100.00,NNE,25,12.0,17.0,58,0.00,,,-99.99,,2013-05-01 18:52:00,
2013-05-01 14:02:00,67.0,52.0,-100.00,North,350,15.0,22.0,58,0.00,,,-99.99,,2013-05-01 19:02:00,
2013-05-01 14:11:00,66.0,50.0,-100.00,North,0,17.0,26.0,56,0.00,,,-99.99,,2013-05-01 19:11:00,
2013-05-01 14:22:00,66.0,51.0,-100.00,North,0,17.0,26.0,57,0.00,,,-99.99,,2013-05-01 19:22:00,
2013-05-01 14:32:00,67.0,51.0,-100.00,NNW,345,17.0,26.0,58,0.00,,,-99.99,,2013-05-01 19:32:00,
2013-05-01 14:43:00,67.0,51.0,-100.00,North,350,17.0,24.0,57,0.00,,,-99.99,,2013-05-01 19:43:00,
2013-05-01 14:52:00,67.0,50.0,-100.00,NNW,340,19.0,27.0,55,0.00,,,-99.99,,2013-05-01 19:52:00,
2013-05-01 15:01:00,65.0,51.0,-100.00,NNW,340,23.0,29.0,59,0.00,,,-99.99,,2013-05-01 20:01:00,
2013-05-01 15:11:00,67.0,52.0,-100.00,North,5,16.0,25.0,59,0.00,,,-99.99,,2013-05-01 20:11:00,
2013-05-01 15:21:00,66.0,51.0,-100.00,North,0,20.0,26.0,58,0.00,,,-99.99,,2013-05-01 20:21:00,
2013-05-01 15:32:00,66.0,52.0,-100.00,North,0,17.0,24.0,60,0.00,,,-99.99,,2013-05-01 20:32:00,
2013-05-01 15:42:00,66.0,51.0,-100.00,North,5,18.0,25.0,58,0.00,,,-99.99,,2013-05-01 20:42:00,
2013-05-01 15:52:00,65.0,51.0,-100.00,NNW,330,21.0,29.0,60,0.00,,,-99.99,,2013-05-01 20:52:00,
2013-05-01 16:01:00,64.0,51.0,-100.00,NNW,335,22.0,29.0,61,0.00,,,-99.99,,2013-05-01 21:01:00,
2013-05-01 16:11:00,63.0,50.0,-100.00,NNW,340,21.0,29.0,62,0.00,,,-99.99,,2013-05-01 21:11:00,
2013-05-01 16:22:00,63.0,50.0,-100.00,NNW,340,23.0,29.0,61,0.00,,,-99.99,,2013-05-01 21:22:00,
2013-05-01 16:32:00,63.0,50.0,-100.00,NNW,345,24.0,29.0,62,0.00,,,-99.99,,2013-05-01 21:32:00,
2013-05-01 16:43:00,62.0,50.0,-100.00,NNW,335,24.0,30.0,63,0.00,,,-99.99,,2013-05-01 21:43:00,
2013-05-01 16:53:00,61.0,49.0,-100.00,NNW,330,24.0,31.0,63,0.00,,,-99.99,,2013-05-01 21:53:00,
2013-05-01 17:03:00,61.0,49.0,-100.00,NNW,340,26.0,33.0,65,0.00,,,-99.99,,2013-05-01 22:03:00,
2013-05-01 17:12:00,60.0,48.0,-100.00,NNW,345,22.0,34.0,65,0.00,,,-99.99,,2013-05-01 22:12:00,
2013-05-01 17:23:00,59.0,48.0,-100.00,NNW,340,28.0,33.0,67,0.00,,,-99.99,,2013-05-01 22:23:00,
2013-05-01 17:33:00,59.0,48.0,-100.00,NNW,340,22.0,33.0,66,0.00,,,-99.99,,2013-05-01 22:33:00,
2013-05-01 17:42:00,57.0,47.0,-100.00,NNW,340,26.0,32.0,69,0.00,,,-99.99,,2013-05-01 22:42:00,
2013-05-01 17:52:00,56.0,47.0,-100.00,NW,325,25.0,32.0,72,0.00,,,-99.99,,2013-05-01 22:52:00,
2013-05-01 18:02:00,54.0,46.0,-100.00,NNW,330,29.0,39.0,73,0.00,,,-99.99,,2013-05-01 23:02:00,
2013-05-01 18:12:00,53.0,46.0,-100.00,NNW,340,26.0,39.0,75,0.00,,,-99.99,,2013-05-01 23:12:00,
2013-05-01 18:21:00,52.0,45.0,-100.00,NNW,340,27.0,39.0,77,0.00,,,-99.99,,2013-05-01 23:21:00,
2013-05-01 18:32:00,50.0,45.0,-100.00,NW,325,28.0,35.0,83,0.00,,,-99.99,,2013-05-01 23:32:00,
2013-05-01 18:42:00,49.0,45.0,-100.00,NNW,330,26.0,34.0,85,0.00,,,-99.99,,2013-05-01 23:42:00,
2013-05-01 18:52:00,48.0,44.0,-100.00,NNW,335,29.0,37.0,85,0.00,,,-99.99,,2013-05-01 23:52:00,
2013-05-01 19:01:00,48.0,44.0,-100.00,NNW,335,27.0,35.0,87,0.00,,,-99.99,,2013-05-02 00:01:00,
2013-05-01 19:11:00,47.0,44.0,-100.00,North,350,22.0,35.0,87,0.00,,,-99.99,,2013-05-02 00:11:00,
2013-05-01 19:21:00,47.0,43.0,-100.00,North,355,28.0,35.0,86,0.00,,,-99.99,,2013-05-02 00:21:00,
2013-05-01 19:32:00,47.0,43.0,-100.00,NNW,345,26.0,32.0,86,0.00,,,-99.99,,2013-05-02 00:32:00,
2013-05-01 19:41:00,46.0,43.0,-100.00,NNW,340,27.0,35.0,86,0.00,,,-99.99,,2013-05-02 00:41:00,
2013-05-01 19:52:00,46.0,42.0,-100.00,North,355,25.0,35.0,87,0.00,,,-99.99,,2013-05-02 00:52:00,
2013-05-01 20:01:00,45.0,42.0,-100.00,North,350,32.0,42.0,87,0.00,,,-99.99,,2013-05-02 01:01:00,
2013-05-01 20:11:00,45.0,41.0,-100.00,NNW,345,30.0,37.0,87,0.00,,,-99.99,,2013-05-02 01:11:00,
2013-05-01 20:21:00,45.0,41.0,-100.00,NNW,345,29.0,39.0,86,0.00,,,-99.99,,2013-05-02 01:21:00,
2013-05-01 20:32:00,44.0,40.0,-100.00,North,350,27.0,36.0,85,0.00,,,-99.99,,2013-05-02 01:32:00,
2013-05-01 20:42:00,44.0,40.0,-100.00,North,5,27.0,35.0,84,0.00,,,-99.99,,2013-05-02 01:42:00,
2013-05-01 20:52:00,44.0,40.0,-100.00,North,0,26.0,34.0,84,0.00,,,-99.99,,2013-05-02 01:52:00,
2013-05-01 21:02:00,44.0,40.0,-100.00,North,0,26.0,34.0,84,0.00,,,-99.99,,2013-05-02 02:02:00,
2013-05-01 21:12:00,43.0,40.0,-100.00,North,350,26.0,34.0,86,0.00,,,-99.99,,2013-05-02 02:12:00,
2013-05-01 21:21:00,43.0,40.0,-100.00,North,5,26.0,34.0,86,0.00,,,-99.99,,2013-05-02 02:21:00,
2013-05-01 21:32:00,43.0,40.0,-100.00,North,0,19.0,28.0,87,0.00,,,-99.99,,2013-05-02 02:32:00,
2013-05-01 21:42:00,43.0,40.0,-100.00,North,0,19.0,28.0,87,0.00,,,-99.99,,2013-05-02 02:42:00,
2013-05-01 21:51:00,43.0,40.0,-100.00,North,0,19.0,28.0,87,0.00,,,-99.99,,2013-05-02 02:51:00,
2013-05-01 22:01:00,43.0,40.0,-100.00,North,5,19.0,32.0,87,0.00,,,-99.99,,2013-05-02 03:01:00,
2013-05-01 22:11:00,43.0,40.0,-100.00,North,0,24.0,30.0,87,0.00,,,-99.99,,2013-05-02 03:11:00,
2013-05-01 22:22:00,43.0,40.0,-100.00,North,5,23.0,29.0,87,0.00,,,-99.99,,2013-05-02 03:22:00,
2013-05-01 22:32:00,43.0,40.0,-100.00,North,5,23.0,29.0,87,0.00,,,-99.99,,2013-05-02 03:32:00,
2013-05-01 22:42:00,43.0,40.0,-100.00,North,5,27.0,34.0,88,0.00,,,-99.99,,2013-05-02 03:42:00,
2013-05-01 22:52:00,43.0,40.0,-100.00,North,5,26.0,31.0,88,0.00,,,-99.99,,2013-05-02 03:52:00,
2013-05-01 23:03:00,43.0,40.0,-100.00,North,0,22.0,29.0,89,0.00,,,-99.99,,2013-05-02 04:03:00,
2013-05-01 23:12:00,43.0,40.0,-100.00,North,0,22.0,29.0,89,0.00,,,-99.99,,2013-05-02 04:12:00,
2013-05-01 23:23:00,43.0,40.0,-100.00,North,0,22.0,32.0,90,0.00,,,-99.99,,2013-05-02 04:23:00,
2013-05-01 23:33:00,42.0,40.0,-100.00,North,5,24.0,32.0,90,0.00,,,-99.99,,2013-05-02 04:33:00,
2013-05-01 23:42:00,42.0,40.0,-100.00,NNW,345,25.0,34.0,90,0.00,,,-99.99,,2013-05-02 04:42:00,
2013-05-01 23:52:00,42.0,40.0,-100.00,North,350,23.0,32.0,91,0.00,,,-99.99,,2013-05-02 04:52:00,